Time;durP1;ratioP1;P1;durP2;ratioP2;P2;SDS_P1;SDS_P2;PMS_P1;PMS_P2;Temp;Humidity;BMP_temperature;BMP_pressure;BME280_temperature;BME280_humidity;BME280_pressure;Samples;Min_cycle;Max_cycle;Signal;HPM_P1;HPM_P2
2022/06/25 00:01:10;;;;;;;4.60;1.10;;;16.10;99.90;;;;;;5012947;28;20022;-73
2022/06/25 00:03:38;;;;;;;2.83;0.90;;;16.10;99.90;;;;;;5011596;28;20459;-73
2022/06/25 00:06:07;;;;;;;2.70;0.80;;;16.30;99.90;;;;;;5012715;28;20119;-72
2022/06/25 00:08:36;;;;;;;1.45;0.75;;;16.30;99.90;;;;;;5012874;28;20068;-71
2022/06/25 00:11:04;;;;;;;2.30;1.08;;;16.40;99.90;;;;;;5012942;28;20019;-71
2022/06/25 00:13:32;;;;;;;2.25;0.90;;;16.50;99.90;;;;;;5012884;28;20018;-71
2022/06/25 00:16:00;;;;;;;5.55;1.00;;;16.60;99.90;;;;;;5013700;28;20050;-71
2022/06/25 00:18:27;;;;;;;4.03;0.90;;;16.70;99.90;;;;;;5017063;28;20025;-71
2022/06/25 00:20:55;;;;;;;1.42;0.65;;;16.60;99.90;;;;;;5016866;28;20498;-71
2022/06/25 00:23:22;;;;;;;3.00;0.90;;;16.70;99.90;;;;;;5015410;28;20454;-71
2022/06/25 00:25:49;;;;;;;2.33;1.00;;;16.80;99.90;;;;;;5016706;28;20048;-71
2022/06/25 00:28:17;;;;;;;1.75;0.70;;;16.80;99.90;;;;;;5015316;28;20022;-71
2022/06/25 00:30:44;;;;;;;1.02;0.60;;;16.80;99.90;;;;;;5015516;28;20026;-72
2022/06/25 00:33:11;;;;;;;2.63;0.70;;;16.80;99.90;;;;;;5016597;28;20014;-71
2022/06/25 00:35:39;;;;;;;2.03;0.73;;;16.90;99.90;;;;;;5015153;28;20083;-71
2022/06/25 00:38:06;;;;;;;2.22;0.60;;;16.90;99.90;;;;;;5016448;28;20432;-71
2022/06/25 00:40:33;;;;;;;2.47;0.70;;;17.00;99.90;;;;;;5016443;28;20053;-71
2022/06/25 00:43:01;;;;;;;1.75;0.68;;;17.00;99.90;;;;;;5016416;28;20029;-71
2022/06/25 00:45:28;;;;;;;1.45;0.80;;;17.00;99.90;;;;;;5016384;28;20029;-71
2022/06/25 00:47:55;;;;;;;1.85;0.65;;;17.10;99.90;;;;;;5016270;28;20109;-72
2022/06/25 00:50:23;;;;;;;2.28;0.73;;;17.20;99.90;;;;;;5016247;28;20497;-72
2022/06/25 00:52:56;;;;;;;2.35;1.10;;;17.20;99.90;;;;;;5015995;28;20021;-72
2022/06/25 00:55:30;;;;;;;2.00;0.80;;;17.30;99.90;;;;;;5016980;28;20056;-72
2022/06/25 00:58:01;;;;;;;3.85;1.02;;;17.30;99.90;;;;;;5016197;28;20073;-72
2022/06/25 01:00:29;;;;;;;2.85;0.80;;;17.40;99.90;;;;;;5015352;28;20397;-72
2022/06/25 01:02:57;;;;;;;1.95;0.60;;;17.30;99.90;;;;;;5014584;28;20445;-72
2022/06/25 01:05:24;;;;;;;2.58;0.68;;;17.30;99.90;;;;;;5015803;28;20129;-72
2022/06/25 01:07:52;;;;;;;3.22;0.80;;;17.40;99.90;;;;;;5015994;28;20030;-71
2022/06/25 01:10:19;;;;;;;1.88;0.88;;;17.40;99.90;;;;;;5015952;28;20061;-72
2022/06/25 01:12:46;;;;;;;1.20;0.80;;;17.50;99.90;;;;;;5015936;28;20046;-72
2022/06/25 01:15:19;;;;;;;2.72;0.82;;;17.60;99.90;;;;;;5014494;28;20030;-72
2022/06/25 01:17:50;;;;;;;1.38;0.50;;;17.60;99.90;;;;;;5015791;28;20025;-72
2022/06/25 01:20:19;;;;;;;1.63;0.50;;;17.70;99.90;;;;;;5016329;28;20030;-72
2022/06/25 01:22:47;;;;;;;3.33;0.60;;;17.80;99.90;;;;;;5015666;28;20030;-72
2022/06/25 01:25:16;;;;;;;1.25;0.70;;;17.90;99.90;;;;;;5014284;28;20034;-72
2022/06/25 01:27:43;;;;;;;1.52;0.55;;;18.00;99.90;;;;;;5014597;28;20050;-72
2022/06/25 01:30:12;;;;;;;2.67;0.80;;;18.10;99.90;;;;;;5015480;28;20033;-72
2022/06/25 01:32:40;;;;;;;1.27;0.50;;;18.10;99.90;;;;;;5016176;28;20026;-72
2022/06/25 01:35:09;;;;;;;2.10;0.98;;;18.10;99.90;;;;;;5015538;28;20373;-72
2022/06/25 01:37:37;;;;;;;1.63;0.80;;;18.20;99.90;;;;;;5015672;28;20146;-71
2022/06/25 01:40:05;;;;;;;1.60;0.60;;;18.30;99.90;;;;;;5015377;28;20394;-72
2022/06/25 01:45:18;;;;;;;3.00;1.00;;;18.40;99.90;;;;;;5015606;28;20037;-72
2022/06/25 01:47:45;;;;;;;1.58;0.70;;;18.40;99.90;;;;;;5015237;28;20037;-72
2022/06/25 01:50:13;;;;;;;2.40;0.70;;;18.40;99.90;;;;;;5015103;28;20556;-72
2022/06/25 01:52:42;;;;;;;2.50;1.02;;;18.50;99.90;;;;;;5015119;28;20024;-71
2022/06/25 01:55:11;;;;;;;2.50;0.80;;;18.60;99.90;;;;;;5013663;28;20482;-71
2022/06/25 01:57:38;;;;;;;4.00;0.90;;;18.70;99.90;;;;;;5013855;28;20040;-70
2022/06/25 02:00:11;;;;;;;1.52;0.60;;;18.80;99.90;;;;;;5013432;28;20030;-70
2022/06/25 02:02:39;;;;;;;2.35;0.80;;;18.80;99.90;;;;;;5015052;28;20050;-70
2022/06/25 02:05:07;;;;;;;4.10;0.65;;;18.80;99.90;;;;;;5014593;28;20379;-70
2022/06/25 02:07:34;;;;;;;1.70;0.52;;;18.90;99.90;;;;;;5014767;28;20105;-71
2022/06/25 02:10:02;;;;;;;1.13;0.77;;;18.80;99.90;;;;;;5013330;28;20053;-70
2022/06/25 02:12:29;;;;;;;4.05;0.90;;;19.00;99.90;;;;;;5014657;28;20026;-70
2022/06/25 02:14:57;;;;;;;1.40;0.60;;;19.10;99.90;;;;;;5014488;28;20494;-70
2022/06/25 02:17:24;;;;;;;2.47;0.55;;;19.20;99.90;;;;;;5014376;28;20026;-71
2022/06/25 02:19:51;;;;;;;0.65;0.40;;;19.20;99.90;;;;;;5014427;28;20030;-71
2022/06/25 02:22:19;;;;;;;1.60;0.50;;;19.10;99.90;;;;;;5014320;28;20026;-72
2022/06/25 02:24:46;;;;;;;1.48;0.43;;;19.10;99.90;;;;;;5014292;28;20021;-73
2022/06/25 02:27:13;;;;;;;1.13;0.40;;;19.10;99.90;;;;;;5014331;28;20046;-73
2022/06/25 02:29:41;;;;;;;2.13;0.57;;;19.10;99.90;;;;;;5014312;28;20108;-74
2022/06/25 02:32:08;;;;;;;3.50;0.50;;;19.30;99.90;;;;;;5014208;28;20018;-75
2022/06/25 02:34:36;;;;;;;3.95;0.57;;;19.20;99.90;;;;;;5014338;28;20065;-73
2022/06/25 02:37:03;;;;;;;2.35;0.47;;;19.20;99.90;;;;;;5014102;28;20021;-72
2022/06/25 02:39:30;;;;;;;0.95;0.30;;;19.20;99.90;;;;;;5013816;28;20026;-72
2022/06/25 02:41:58;;;;;;;0.85;0.30;;;19.20;99.90;;;;;;5012699;28;20026;-72
2022/06/25 02:44:25;;;;;;;1.75;0.40;;;19.30;99.90;;;;;;5014194;28;20072;-72
2022/06/25 02:46:52;;;;;;;1.38;0.40;;;19.40;99.90;;;;;;5014076;28;20478;-72
2022/06/25 02:49:19;;;;;;;0.70;0.47;;;19.30;99.90;;;;;;5014046;28;20076;-73
2022/06/25 02:51:47;;;;;;;1.27;0.47;;;19.30;99.90;;;;;;5014111;28;20386;-72
2022/06/25 02:54:14;;;;;;;0.50;0.32;;;19.30;99.90;;;;;;5013965;28;20021;-73
2022/06/25 02:59:27;;;;;;;1.98;0.63;;;19.30;99.90;;;;;;5014223;28;20386;-72
2022/06/25 03:01:55;;;;;;;1.92;0.60;;;19.30;99.90;;;;;;5013632;28;20017;-72
2022/06/25 03:04:24;;;;;;;2.25;0.50;;;19.30;99.90;;;;;;5013753;28;20060;-72
2022/06/25 03:06:52;;;;;;;1.90;0.40;;;19.40;99.90;;;;;;5012169;28;20126;-70
2022/06/25 03:09:19;;;;;;;1.20;0.40;;;19.40;99.90;;;;;;5012283;28;20045;-72
2022/06/25 03:11:47;;;;;;;1.30;0.45;;;19.40;99.90;;;;;;5013914;28;20018;-72
2022/06/25 03:14:14;;;;;;;1.60;0.70;;;19.40;99.90;;;;;;5013645;28;20394;-72
2022/06/25 03:16:42;;;;;;;2.30;0.80;;;19.60;99.90;;;;;;5012146;28;20179;-72
2022/06/25 03:19:10;;;;;;;0.80;0.52;;;19.70;99.90;;;;;;5013643;28;20030;-72
2022/06/25 03:21:37;;;;;;;1.20;0.52;;;19.80;99.90;;;;;;5013398;28;20025;-72
2022/06/25 03:24:05;;;;;;;2.67;0.50;;;19.80;99.90;;;;;;5013514;28;20215;-72
2022/06/25 03:26:32;;;;;;;2.85;0.50;;;19.70;99.90;;;;;;5013164;28;20018;-73
2022/06/25 03:29:02;;;;;;;2.03;0.57;;;19.80;99.90;;;;;;5013349;28;20025;-72
2022/06/25 03:31:29;;;;;;;0.95;0.45;;;19.70;99.90;;;;;;5013274;28;20493;-71
2022/06/25 03:33:57;;;;;;;1.30;0.50;;;19.60;99.90;;;;;;5013259;28;20470;-71
2022/06/25 03:36:24;;;;;;;2.65;0.60;;;19.70;99.90;;;;;;5013208;28;20394;-71
2022/06/25 03:38:52;;;;;;;1.35;0.60;;;19.70;99.90;;;;;;5013103;28;20018;-71
2022/06/25 03:41:37;;;;;;;1.90;0.60;;;19.70;99.90;;;;;;5013469;28;20117;-70
2022/06/25 03:44:06;;;;;;;2.45;0.63;;;19.70;99.90;;;;;;5013351;28;20109;-70
2022/06/25 03:46:34;;;;;;;1.38;0.70;;;19.90;99.90;;;;;;5013216;28;20029;-70
2022/06/25 03:49:02;;;;;;;1.58;0.50;;;19.90;99.90;;;;;;5012989;28;20036;-71
2022/06/25 03:51:30;;;;;;;1.48;0.60;;;19.80;99.90;;;;;;5011202;28;20033;-71
2022/06/25 03:53:58;;;;;;;1.90;0.60;;;19.60;99.90;;;;;;5012993;28;20028;-70
2022/06/25 03:56:25;;;;;;;2.22;0.57;;;19.60;99.90;;;;;;5011668;28;20030;-70
2022/06/25 03:58:53;;;;;;;2.53;0.90;;;19.50;99.90;;;;;;5012987;28;20028;-70
2022/06/25 04:01:23;;;;;;;1.63;0.55;;;19.40;99.90;;;;;;5012974;28;20018;-69
2022/06/25 04:03:51;;;;;;;2.22;0.80;;;19.40;99.90;;;;;;5012777;28;20390;-71
2022/06/25 04:06:19;;;;;;;1.85;0.77;;;19.30;99.90;;;;;;5012545;28;20042;-70
2022/06/25 04:08:50;;;;;;;2.83;0.70;;;19.30;99.90;;;;;;5012813;28;20028;-70
2022/06/25 04:11:17;;;;;;;2.15;0.77;;;19.10;99.90;;;;;;5013021;28;20018;-71
2022/06/25 04:13:45;;;;;;;1.83;0.80;;;19.00;99.90;;;;;;5013037;28;20037;-71
2022/06/25 04:16:12;;;;;;;2.28;0.63;;;18.90;99.90;;;;;;5012800;28;20073;-71
2022/06/25 04:18:39;;;;;;;2.17;0.80;;;18.70;99.90;;;;;;5012768;28;20024;-72
2022/06/25 04:21:07;;;;;;;1.50;0.65;;;18.60;99.90;;;;;;5011288;28;20025;-69
2022/06/25 04:23:34;;;;;;;2.15;0.60;;;18.60;99.90;;;;;;5012748;28;20536;-71
2022/06/25 04:26:01;;;;;;;1.80;0.80;;;18.50;99.90;;;;;;5012665;28;20073;-70
2022/06/25 04:31:15;;;;;;;2.42;0.60;;;18.40;99.90;;;;;;5012883;28;20073;-69
2022/06/25 04:33:42;;;;;;;2.65;0.90;;;18.20;99.90;;;;;;5012816;28;20026;-70
2022/06/25 04:36:09;;;;;;;0.88;0.38;;;18.10;99.90;;;;;;5012803;28;20029;-70
2022/06/25 04:38:37;;;;;;;1.13;0.70;;;18.30;99.90;;;;;;5012762;28;20025;-68
2022/06/25 04:41:04;;;;;;;2.13;0.63;;;18.40;99.90;;;;;;5012593;28;20050;-71
2022/06/25 04:43:31;;;;;;;1.63;0.60;;;18.40;99.90;;;;;;5012462;28;20054;-70
2022/06/25 04:45:59;;;;;;;2.20;0.68;;;18.40;99.90;;;;;;5012633;28;20515;-70
2022/06/25 04:48:26;;;;;;;2.05;0.70;;;18.40;99.90;;;;;;5012429;28;20049;-70
2022/06/25 04:50:54;;;;;;;1.25;0.50;;;18.50;99.90;;;;;;5011162;28;20161;-69
2022/06/25 04:53:21;;;;;;;2.17;0.82;;;18.60;99.90;;;;;;5012491;28;20100;-68
2022/06/25 04:55:48;;;;;;;2.25;0.60;;;18.60;99.90;;;;;;5012588;28;20029;-68
2022/06/25 04:58:16;;;;;;;1.38;0.50;;;18.60;99.90;;;;;;5011218;28;20030;-69
2022/06/25 05:00:44;;;;;;;2.78;0.80;;;18.60;99.90;;;;;;5013026;28;20482;-70
2022/06/25 05:03:11;;;;;;;2.22;0.35;;;18.80;99.90;;;;;;5015017;28;20026;-70
2022/06/25 05:05:38;;;;;;;1.08;0.50;;;18.80;99.90;;;;;;5015666;28;20089;-69
2022/06/25 05:08:06;;;;;;;0.65;0.40;;;18.70;99.90;;;;;;5016316;28;20487;-71
2022/06/25 05:10:33;;;;;;;1.80;0.40;;;18.80;99.90;;;;;;5015817;28;20033;-70
2022/06/25 05:13:13;;;;;;;1.00;0.40;;;18.80;99.90;;;;;;5016003;28;20367;-70
2022/06/25 05:15:44;;;;;;;1.42;0.50;;;18.80;99.90;;;;;;5015883;28;20026;-70
2022/06/25 05:18:13;;;;;;;2.20;0.60;;;18.80;99.90;;;;;;5015884;28;20040;-71
2022/06/25 05:20:41;;;;;;;2.75;0.40;;;18.80;99.90;;;;;;5015725;28;20066;-70
2022/06/25 05:23:10;;;;;;;1.17;0.60;;;18.80;99.90;;;;;;5015709;28;20397;-70
2022/06/25 05:25:37;;;;;;;2.08;0.40;;;18.80;99.90;;;;;;5015533;28;20033;-70
2022/06/25 05:28:05;;;;;;;2.83;0.50;;;18.80;99.90;;;;;;5015594;28;20389;-70
2022/06/25 05:30:33;;;;;;;1.80;0.60;;;18.80;99.90;;;;;;5015421;28;20501;-71
2022/06/25 05:33:00;;;;;;;2.92;0.43;;;18.80;99.90;;;;;;5014201;28;20522;-71
2022/06/25 05:35:28;;;;;;;3.47;0.70;;;18.80;99.90;;;;;;5015340;28;20149;-71
2022/06/25 05:37:55;;;;;;;1.23;0.60;;;18.70;99.90;;;;;;5015919;28;20360;-70
2022/06/25 05:40:23;;;;;;;1.55;0.80;;;18.60;99.90;;;;;;5015294;28;20101;-70
2022/06/25 05:42:50;;;;;;;3.70;1.05;;;18.50;99.90;;;;;;5015526;28;20060;-70
2022/06/25 05:45:18;;;;;;;2.15;1.05;;;18.50;99.90;;;;;;5015373;28;20450;-71
2022/06/25 05:47:45;;;;;;;2.80;0.85;;;18.50;99.90;;;;;;5015344;28;20022;-70
2022/06/25 05:50:12;;;;;;;2.63;0.77;;;18.40;99.90;;;;;;5013769;28;20065;-70
2022/06/25 05:52:40;;;;;;;1.70;0.63;;;18.40;99.90;;;;;;5015163;28;20050;-70
2022/06/25 05:55:08;;;;;;;11.18;2.40;;;18.50;99.90;;;;;;5013656;28;20022;-71
2022/06/25 05:57:36;;;;;;;6.05;1.52;;;18.40;99.90;;;;;;5015117;28;20386;-70
2022/06/25 06:00:04;;;;;;;1.95;0.43;;;18.30;99.90;;;;;;5014980;28;20026;-70
2022/06/25 06:02:31;;;;;;;2.33;0.63;;;18.20;99.90;;;;;;5015021;28;20367;-72
2022/06/25 06:04:58;;;;;;;2.42;0.50;;;18.10;99.90;;;;;;5014575;28;20092;-72
2022/06/25 06:07:26;;;;;;;1.77;0.50;;;18.00;99.90;;;;;;5014855;28;20037;-71
2022/06/25 06:09:53;;;;;;;2.67;0.70;;;17.90;99.90;;;;;;5015059;28;20033;-71
2022/06/25 06:12:20;;;;;;;1.30;0.50;;;17.70;99.90;;;;;;5014650;28;20463;-72
2022/06/25 06:14:48;;;;;;;2.80;0.68;;;17.50;99.90;;;;;;5014189;28;20029;-72
2022/06/25 06:17:15;;;;;;;1.60;1.08;;;17.40;99.90;;;;;;5014524;28;20026;-71
2022/06/25 06:19:43;;;;;;;1.83;0.70;;;17.30;99.90;;;;;;5013318;28;20029;-71
2022/06/25 06:22:10;;;;;;;3.15;1.92;;;17.20;99.90;;;;;;5014492;28;20032;-70
2022/06/25 06:24:37;;;;;;;2.13;1.00;;;17.10;99.90;;;;;;5014482;28;20105;-70
2022/06/25 06:27:05;;;;;;;2.70;1.55;;;17.10;99.90;;;;;;5013176;28;20041;-72
2022/06/25 06:29:32;;;;;;;2.85;1.30;;;16.90;99.90;;;;;;5014565;28;20038;-72
2022/06/25 06:32:00;;;;;;;2.55;1.80;;;17.00;99.90;;;;;;5014108;28;20046;-72
2022/06/25 06:34:27;;;;;;;3.38;1.70;;;16.90;99.90;;;;;;5012988;28;20022;-71
2022/06/25 06:36:54;;;;;;;1.63;1.08;;;16.90;99.90;;;;;;5014444;28;20486;-71
2022/06/25 06:39:22;;;;;;;2.85;1.13;;;16.80;99.90;;;;;;5014363;28;20022;-71
2022/06/25 06:41:49;;;;;;;1.60;1.02;;;16.70;99.90;;;;;;5014106;28;20022;-71
2022/06/25 06:44:16;;;;;;;1.92;0.80;;;16.60;99.90;;;;;;5012851;28;20030;-71
2022/06/25 06:46:43;;;;;;;1.50;0.80;;;16.60;99.90;;;;;;5014209;28;20022;-71
2022/06/25 06:49:11;;;;;;;2.25;0.63;;;16.60;99.90;;;;;;5012678;28;20049;-69
2022/06/25 06:51:38;;;;;;;2.60;0.77;;;16.60;99.90;;;;;;5014214;28;20344;-71
2022/06/25 06:54:06;;;;;;;1.42;0.70;;;16.50;99.90;;;;;;5013973;28;20097;-70
2022/06/25 06:56:33;;;;;;;2.33;1.20;;;16.40;99.90;;;;;;5014082;28;20457;-73
2022/06/25 06:59:00;;;;;;;1.65;0.80;;;16.60;99.90;;;;;;5012538;28;20109;-70
2022/06/25 07:01:28;;;;;;;2.60;0.90;;;16.50;99.90;;;;;;5013974;28;20024;-72
2022/06/25 07:03:55;;;;;;;1.20;1.00;;;16.30;99.90;;;;;;5014122;28;20088;-72
2022/06/25 07:06:23;;;;;;;4.03;1.38;;;16.10;99.90;;;;;;5013575;28;20046;-72
2022/06/25 07:08:50;;;;;;;2.90;1.90;;;16.00;99.90;;;;;;5013772;28;20056;-72
2022/06/25 07:11:30;;;;;;;2.88;2.00;;;15.80;99.90;;;;;;5013865;28;20022;-73
2022/06/25 07:13:59;;;;;;;3.70;2.03;;;15.70;99.90;;;;;;5013836;28;20057;-73
2022/06/25 07:16:28;;;;;;;3.55;2.03;;;15.60;99.90;;;;;;5012430;28;20022;-73
2022/06/25 07:18:57;;;;;;;4.43;2.10;;;15.50;99.90;;;;;;5012621;28;20026;-73
2022/06/25 07:21:25;;;;;;;3.22;2.10;;;15.50;99.90;;;;;;5013690;28;20105;-71
2022/06/25 07:23:52;;;;;;;3.63;2.30;;;15.40;99.90;;;;;;5013537;28;20105;-73
2022/06/25 07:26:21;;;;;;;4.35;2.45;;;15.40;99.90;;;;;;5012529;28;20533;-72
2022/06/25 07:28:49;;;;;;;4.95;3.00;;;15.20;99.90;;;;;;5012053;28;20076;-72
2022/06/25 07:31:16;;;;;;;5.72;3.17;;;15.10;99.90;;;;;;5013604;28;20436;-72
2022/06/25 07:33:43;;;;;;;6.35;3.63;;;15.00;99.90;;;;;;5013506;28;20100;-71
2022/06/25 07:36:11;;;;;;;8.27;4.45;;;14.90;99.90;;;;;;5013459;28;20022;-72
2022/06/25 07:38:38;;;;;;;5.50;3.92;;;14.70;99.90;;;;;;5013621;28;20080;-71
2022/06/25 07:41:05;;;;;;;6.32;4.13;;;14.70;99.90;;;;;;5012052;28;20543;-73
2022/06/25 07:43:33;;;;;;;7.90;4.25;;;14.60;99.90;;;;;;5012054;28;20030;-72
2022/06/25 07:46:01;;;;;;;8.43;4.20;;;14.50;99.90;;;;;;5011993;28;20026;-72
2022/06/25 07:48:28;;;;;;;7.25;4.43;;;14.60;99.90;;;;;;5013248;28;20399;-72
2022/06/25 07:53:41;;;;;;;7.30;4.70;;;14.50;99.90;;;;;;5013773;28;20437;-72
2022/06/25 07:56:08;;;;;;;7.07;4.47;;;14.50;99.90;;;;;;5013142;28;20033;-72
2022/06/25 07:58:36;;;;;;;7.60;5.20;;;14.40;99.90;;;;;;5013241;28;20026;-73
2022/06/25 08:01:03;;;;;;;7.43;5.22;;;14.40;99.90;;;;;;5013144;28;20022;-72
2022/06/25 08:03:31;;;;;;;12.57;5.25;;;14.40;99.90;;;;;;5011772;28;20413;-71
2022/06/25 08:05:59;;;;;;;7.63;5.30;;;14.30;99.90;;;;;;5012845;28;20092;-71
2022/06/25 08:08:27;;;;;;;11.68;8.38;;;14.20;99.90;;;;;;5011789;28;20395;-72
2022/06/25 08:10:54;;;;;;;31.48;19.20;;;14.10;99.90;;;;;;5012855;28;20026;-71
2022/06/25 08:13:22;;;;;;;38.83;25.05;;;14.10;99.90;;;;;;5011669;28;20026;-71
2022/06/25 08:15:51;;;;;;;60.97;33.28;;;14.00;99.90;;;;;;5013239;28;20525;-72
2022/06/25 08:18:18;;;;;;;152.68;76.88;;;13.90;99.90;;;;;;5012994;28;20549;-71
2022/06/25 08:20:46;;;;;;;62.03;32.75;;;13.90;99.90;;;;;;5011613;28;20030;-72
2022/06/25 08:23:13;;;;;;;63.22;31.63;;;13.80;99.90;;;;;;5013231;28;20034;-72
2022/06/25 08:25:41;;;;;;;39.47;22.27;;;13.80;99.90;;;;;;5013373;28;20018;-72
2022/06/25 08:28:08;;;;;;;20.80;10.98;;;13.80;99.90;;;;;;5011598;28;20029;-72
2022/06/25 08:30:36;;;;;;;9.75;5.95;;;13.80;99.90;;;;;;5012840;28;20393;-71
2022/06/25 08:33:03;;;;;;;8.50;5.65;;;13.80;99.90;;;;;;5013038;28;20022;-72
2022/06/25 08:35:31;;;;;;;12.65;7.47;;;13.70;99.90;;;;;;5012856;28;20071;-72
2022/06/25 08:37:58;;;;;;;14.30;8.65;;;13.60;99.90;;;;;;5015134;28;20099;-71
2022/06/25 08:40:29;;;;;;;42.33;31.52;;;13.60;99.90;;;;;;5016688;28;20030;-71
2022/06/25 08:42:56;;;;;;;;;;;13.50;99.90;;;;;;5017066;28;20022;-71
2022/06/25 08:45:23;;;;;;;65.95;50.22;;;13.50;99.90;;;;;;5016550;28;19913;-71
2022/06/25 08:47:52;;;;;;;116.55;104.13;;;13.40;99.90;;;;;;5016596;28;20049;-72
2022/06/25 08:50:22;;;;;;;85.20;76.18;;;13.30;99.90;;;;;;5015083;28;20037;-71
2022/06/25 08:52:51;;;;;;;62.28;52.33;;;13.30;99.90;;;;;;5016573;28;20022;-72
2022/06/25 08:55:32;;;;;;;39.92;33.85;;;13.20;99.90;;;;;;5014970;28;20030;-72
2022/06/25 08:58:01;;;;;;;35.85;30.48;;;13.20;99.90;;;;;;5016421;28;20025;-71
2022/06/25 09:00:30;;;;;;;14.98;11.90;;;13.20;99.90;;;;;;5016246;28;20068;-72
2022/06/25 09:02:58;;;;;;;16.48;13.40;;;13.20;99.90;;;;;;5016215;28;20064;-72
2022/06/25 09:05:26;;;;;;;9.57;7.40;;;13.20;99.90;;;;;;5015854;28;20050;-72
2022/06/25 09:07:58;;;;;;;10.32;6.22;;;13.10;99.90;;;;;;5016350;28;20029;-72
2022/06/25 09:10:27;;;;;;;6.38;4.47;;;13.10;99.90;;;;;;5015984;28;20070;-72
2022/06/25 09:13:03;;;;;;;6.75;4.65;;;13.10;99.90;;;;;;5016173;28;20059;-72
2022/06/25 09:15:37;;;;;;;7.28;4.80;;;13.10;99.90;;;;;;5016128;28;20018;-71
2022/06/25 09:18:09;;;;;;;8.60;5.20;;;13.10;99.90;;;;;;5015885;28;20443;-71
2022/06/25 09:20:54;;;;;;;9.00;6.70;;;13.10;99.90;;;;;;5016301;28;20099;-73
2022/06/25 09:23:21;;;;;;;7.40;5.07;;;13.10;99.90;;;;;;5015731;28;20105;-73
2022/06/25 09:26:06;;;;;;;5.78;4.47;;;13.00;99.90;;;;;;5015726;28;20026;-73
2022/06/25 09:28:39;;;;;;;6.72;3.40;;;13.00;99.90;;;;;;5014429;28;20025;-72
2022/06/25 09:31:07;;;;;;;5.78;3.63;;;13.20;99.90;;;;;;5015471;28;20033;-72
2022/06/25 09:33:36;;;;;;;8.52;6.45;;;13.20;99.90;;;;;;5015519;28;20014;-72
2022/06/25 09:36:06;;;;;;;10.10;8.65;;;13.20;99.90;;;;;;5015485;28;20382;-72
2022/06/25 09:38:34;;;;;;;12.43;11.13;;;13.10;99.90;;;;;;5015552;28;20021;-72
2022/06/25 09:41:02;;;;;;;11.45;9.75;;;13.10;99.90;;;;;;5015365;28;20030;-70
2022/06/25 09:43:36;;;;;;;9.90;7.60;;;13.00;99.90;;;;;;5014019;28;20030;-71
2022/06/25 09:46:06;;;;;;;10.43;7.43;;;12.90;99.90;;;;;;5013989;28;20022;-71
2022/06/25 09:48:35;;;;;;;5.97;5.10;;;12.80;99.90;;;;;;5014526;28;20053;-70
2022/06/25 09:51:12;;;;;;;7.72;5.40;;;12.70;99.90;;;;;;5015062;28;20449;-71
2022/06/25 09:54:05;;;;;;;7.32;5.30;;;12.60;99.90;;;;;;5013870;28;20026;-70
2022/06/25 09:56:35;;;;;;;12.35;9.60;;;12.50;99.90;;;;;;5013523;28;20034;-71
2022/06/25 09:59:03;;;;;;;11.20;7.90;;;12.40;99.90;;;;;;5015173;28;20029;-71
2022/06/25 10:01:32;;;;;;;9.90;6.53;;;12.40;99.90;;;;;;5014968;28;20026;-71
2022/06/25 10:04:03;;;;;;;8.82;6.72;;;12.30;99.90;;;;;;5013533;28;20409;-71
2022/06/25 10:06:38;;;;;;;9.02;6.50;;;12.30;99.90;;;;;;5014700;28;20096;-70
2022/06/25 10:09:07;;;;;;;7.20;5.55;;;12.30;99.90;;;;;;5013511;28;20022;-69
2022/06/25 10:11:37;;;;;;;7.22;4.97;;;12.30;99.90;;;;;;5014850;28;20104;-70
2022/06/25 10:14:05;;;;;;;8.55;5.50;;;12.20;99.90;;;;;;5014712;28;20022;-70
2022/06/25 10:16:33;;;;;;;6.85;5.13;;;12.20;99.90;;;;;;5014735;28;20021;-70
2022/06/25 10:19:03;;;;;;;9.10;6.40;;;12.10;99.90;;;;;;5014664;28;20021;-70
2022/06/25 10:21:32;;;;;;;9.20;4.82;;;12.20;99.90;;;;;;5013363;28;20029;-70
2022/06/25 10:24:04;;;;;;;7.70;4.72;;;12.10;99.90;;;;;;5013359;28;20077;-70
2022/06/25 10:26:32;;;;;;;7.68;5.00;;;12.10;99.90;;;;;;5014574;28;20105;-70
2022/06/25 10:29:22;;;;;;;6.30;4.82;;;12.10;99.90;;;;;;5014483;28;20026;-71
2022/06/25 10:31:49;;;;;;;7.13;4.95;;;12.10;99.90;;;;;;5014644;28;20466;-71
2022/06/25 10:34:17;;;;;;;8.23;5.55;;;12.10;99.90;;;;;;5014587;28;20022;-70
2022/06/25 10:36:46;;;;;;;8.80;4.82;;;12.10;99.90;;;;;;5014413;28;20022;-71
2022/06/25 10:39:29;;;;;;;6.18;4.40;;;12.10;99.90;;;;;;5014517;28;20097;-72
2022/06/25 10:45:15;;;;;;;7.20;5.65;;;12.00;99.90;;;;;;5014335;28;20040;-71
2022/06/25 10:48:03;;;;;;;26.38;20.20;;;12.00;99.90;;;;;;5012972;28;20492;-71
2022/06/25 10:50:31;;;;;;;18.58;14.43;;;11.90;99.90;;;;;;5014181;28;20033;-71
2022/06/25 10:53:05;;;;;;;13.00;9.43;;;11.90;99.90;;;;;;5014118;28;20455;-71
2022/06/25 10:55:35;;;;;;;9.32;6.80;;;11.80;99.90;;;;;;5012715;28;20022;-71
2022/06/25 10:58:12;;;;;;;8.55;5.90;;;11.70;99.90;;;;;;5014032;28;20048;-71
2022/06/25 11:00:52;;;;;;;8.02;6.10;;;11.50;99.90;;;;;;5013872;28;20030;-71
2022/06/25 11:03:40;;;;;;;9.35;6.78;;;11.40;99.90;;;;;;5012538;28;20389;-70
2022/06/25 11:06:32;;;;;;;8.63;6.60;;;11.40;99.90;;;;;;5006819;28;20562;-70
2022/06/25 11:09:16;;;;;;;6.40;5.63;;;11.30;99.90;;;;;;5013823;28;20018;-71
2022/06/25 11:11:47;;;;;;;8.93;6.00;;;11.30;99.90;;;;;;5013853;28;20014;-72
2022/06/25 11:14:15;;;;;;;;;;;11.30;99.90;;;;;;5014295;28;20037;-71
2022/06/25 11:16:43;;;;;;;8.82;7.03;;;11.20;99.90;;;;;;5012404;28;20328;-71
2022/06/25 11:19:10;;;;;;;9.70;7.00;;;11.20;99.90;;;;;;5012368;28;20033;-71
2022/06/25 11:21:40;;;;;;;8.98;6.15;;;11.20;99.90;;;;;;5013684;28;20033;-70
2022/06/25 11:24:16;;;;;;;7.18;5.18;;;11.20;99.90;;;;;;5012431;28;20025;-71
2022/06/25 11:29:54;;;;;;;7.65;5.53;;;11.20;99.90;;;;;;5013499;28;20037;-71
2022/06/25 11:32:25;;;;;;;7.30;4.95;;;11.10;99.90;;;;;;5013652;28;20022;-71
2022/06/25 11:35:00;;;;;;;8.23;5.18;;;11.00;99.90;;;;;;5012648;28;20398;-71
2022/06/25 11:37:30;;;;;;;6.43;4.50;;;11.10;99.90;;;;;;5013397;28;20090;-71
2022/06/25 11:39:57;;;;;;;6.37;4.80;;;11.00;99.90;;;;;;5013898;28;20026;-71
2022/06/25 11:42:25;;;;;;;5.38;4.22;;;10.90;99.90;;;;;;5013403;28;20255;-70
2022/06/25 11:44:55;;;;;;;7.00;4.93;;;10.90;99.90;;;;;;5012017;28;20044;-71
2022/06/25 11:47:25;;;;;;;7.57;4.97;;;10.90;99.90;;;;;;5013361;28;20030;-70
2022/06/25 11:49:53;;;;;;;6.55;5.13;;;10.90;99.90;;;;;;5013545;28;20478;-69
2022/06/25 11:52:24;;;;;;;6.05;4.78;;;10.90;99.90;;;;;;5011907;28;20022;-69
2022/06/25 11:54:52;;;;;;;6.40;4.30;;;10.90;99.90;;;;;;5011925;28;20033;-70
2022/06/25 11:57:25;;;;;;;7.13;4.07;;;10.90;99.90;;;;;;5011879;28;20025;-71
2022/06/25 11:59:55;;;;;;;6.22;4.90;;;10.80;99.90;;;;;;5013360;28;20026;-71
2022/06/25 12:02:23;;;;;;;6.63;5.32;;;10.90;99.90;;;;;;5012839;28;20065;-71
2022/06/25 12:05:03;;;;;;;6.72;4.90;;;10.80;99.90;;;;;;5012860;28;20022;-71
2022/06/25 12:07:33;;;;;;;5.65;4.70;;;10.80;99.90;;;;;;5013754;28;20028;-71
2022/06/25 12:10:18;;;;;;;7.03;4.57;;;10.80;99.90;;;;;;5011593;28;20076;-70
2022/06/25 12:12:45;;;;;;;8.60;4.63;;;10.70;99.90;;;;;;5015248;28;20022;-70
2022/06/25 12:15:12;;;;;;;5.72;4.03;;;10.70;99.90;;;;;;5017140;28;20426;-70
2022/06/25 12:17:41;;;;;;;4.55;3.92;;;10.70;99.90;;;;;;5017245;28;20030;-70
2022/06/25 12:20:15;;;;;;;6.03;4.03;;;10.70;99.90;;;;;;5015626;28;20041;-71
2022/06/25 12:22:50;;;;;;;5.05;4.00;;;10.70;99.90;;;;;;5016912;28;20076;-71
2022/06/25 12:25:29;;;;;;;5.65;4.20;;;10.80;99.90;;;;;;5016988;28;20105;-69
2022/06/25 12:27:57;;;;;;;5.50;3.85;;;10.80;99.90;;;;;;5017005;28;20055;-69
2022/06/25 12:30:26;;;;;;;6.13;3.90;;;10.80;99.90;;;;;;5016712;28;20521;-70
2022/06/25 12:32:57;;;;;;;6.32;4.28;;;10.90;99.90;;;;;;5016841;28;20429;-70
2022/06/25 12:35:27;;;;;;;4.75;3.75;;;10.80;99.90;;;;;;5017038;28;20080;-69
2022/06/25 12:38:07;;;;;;;6.10;4.22;;;10.90;99.90;;;;;;5015374;28;20030;-70
2022/06/25 12:40:41;;;;;;;4.72;4.18;;;10.90;99.90;;;;;;5016539;28;20101;-70
2022/06/25 12:43:10;;;;;;;6.43;4.03;;;11.00;99.90;;;;;;5016896;28;20022;-70
2022/06/25 12:45:38;;;;;;;6.85;4.32;;;11.10;99.90;;;;;;5016789;28;20030;-69
2022/06/25 12:48:09;;;;;;;6.00;4.38;;;11.20;99.90;;;;;;5016443;28;20026;-70
2022/06/25 12:50:38;;;;;;;5.18;4.03;;;11.30;99.90;;;;;;5016406;28;20030;-70
2022/06/25 12:53:17;;;;;;;5.90;4.22;;;11.30;99.90;;;;;;5016531;28;20029;-69
2022/06/25 12:55:51;;;;;;;5.00;4.22;;;11.30;99.90;;;;;;5016279;28;20026;-70
2022/06/25 12:58:18;;;;;;;4.38;3.97;;;11.30;99.90;;;;;;5014966;28;20433;-70
2022/06/25 13:00:46;;;;;;;6.25;4.07;;;11.30;99.90;;;;;;5014939;28;20080;-69
2022/06/25 13:03:14;;;;;;;4.95;3.85;;;11.30;99.90;;;;;;5014885;28;20362;-70
2022/06/25 13:05:41;;;;;;;5.07;3.60;;;11.30;99.90;;;;;;5014585;28;20050;-70
2022/06/25 13:08:09;;;;;;;5.30;4.57;;;11.30;99.90;;;;;;5016342;28;20032;-70
2022/06/25 13:10:36;;;;;;;6.85;4.20;;;11.20;99.90;;;;;;5015840;28;20101;-70
2022/06/25 13:13:03;;;;;;;4.95;3.92;;;11.10;99.90;;;;;;5015961;28;20052;-69